Time;durP1;ratioP1;P1;durP2;ratioP2;P2;SDS_P1;SDS_P2;PMS_P1;PMS_P2;Temp;Humidity;BMP_temperature;BMP_pressure;BME280_temperature;BME280_humidity;BME280_pressure;Samples;Min_cycle;Max_cycle;Signal;HPM_P1;HPM_P2
2021/12/13 00:03:13;;;;;;;16.35;6.63;;;9.80;99.90;;;;;;10444594;28;20434;-72
2021/12/13 00:08:20;;;;;;;20.30;7.88;;;9.70;99.90;;;;;;10417362;28;20217;-69
2021/12/13 00:13:37;;;;;;;18.05;7.43;;;9.80;99.90;;;;;;10443233;28;20499;-71
2021/12/13 00:18:44;;;;;;;18.77;7.72;;;9.80;99.90;;;;;;10443464;28;20140;-72
2021/12/13 00:24:08;;;;;;;19.58;8.18;;;9.80;99.90;;;;;;10442381;28;20387;-71
2021/12/13 00:29:13;;;;;;;17.20;7.20;;;9.80;99.90;;;;;;10443823;28;20495;-71
2021/12/13 00:34:23;;;;;;;20.52;7.47;;;9.80;99.90;;;;;;10438233;28;20064;-67
2021/12/13 00:39:49;;;;;;;18.25;7.35;;;9.80;99.90;;;;;;10427432;28;20479;-68
2021/12/13 00:44:55;;;;;;;15.50;6.63;;;9.80;99.90;;;;;;10442752;28;20032;-70
2021/12/13 00:50:22;;;;;;;16.58;7.22;;;9.80;99.90;;;;;;10448775;28;20032;-70
2021/12/13 00:55:29;;;;;;;14.38;6.75;;;9.80;99.90;;;;;;10437045;28;20041;-70
2021/12/13 01:00:44;;;;;;;14.93;6.93;;;9.80;99.90;;;;;;10450650;28;20024;-67
2021/12/13 01:06:21;;;;;;;13.80;6.63;;;9.80;99.90;;;;;;10441068;28;20136;-72
2021/12/13 01:11:50;;;;;;;17.55;7.32;;;9.80;99.90;;;;;;10449674;28;20353;-68
2021/12/13 01:17:03;;;;;;;14.35;8.07;;;9.80;99.90;;;;;;10443975;28;20135;-68
2021/12/13 01:22:46;;;;;;;13.75;6.93;;;9.80;99.90;;;;;;10450877;28;20405;-71
2021/12/13 01:27:50;;;;;;;17.52;7.70;;;9.80;99.90;;;;;;10438678;28;20045;-71
2021/12/13 01:32:55;;;;;;;13.83;7.20;;;9.80;99.90;;;;;;10449270;28;20495;-70
2021/12/13 01:38:02;;;;;;;13.13;6.63;;;9.90;99.90;;;;;;10449350;28;20378;-70
2021/12/13 01:43:10;;;;;;;13.27;6.35;;;9.80;99.90;;;;;;10441358;28;20063;-71
2021/12/13 01:48:32;;;;;;;12.60;6.60;;;9.90;99.90;;;;;;10446328;28;20104;-68
2021/12/13 01:53:45;;;;;;;14.30;6.65;;;9.90;99.90;;;;;;10456347;28;20095;-73
2021/12/13 01:58:46;;;;;;;11.65;6.60;;;9.80;99.90;;;;;;10459583;28;20029;-72
2021/12/13 02:04:07;;;;;;;11.43;6.43;;;9.90;99.90;;;;;;10455008;28;20554;-71
2021/12/13 02:09:13;;;;;;;13.38;6.30;;;9.90;99.90;;;;;;10435256;28;20036;-70
2021/12/13 02:14:18;;;;;;;15.73;5.82;;;9.90;99.90;;;;;;10445138;28;20040;-71
2021/12/13 02:19:23;;;;;;;14.18;7.07;;;9.80;99.90;;;;;;10446759;28;20728;-70
2021/12/13 02:24:24;;;;;;;15.95;6.72;;;9.90;99.90;;;;;;10448201;28;20092;-71
2021/12/13 02:29:35;;;;;;;13.50;5.93;;;9.90;99.90;;;;;;10448309;28;20033;-68
2021/12/13 02:34:38;;;;;;;13.05;6.38;;;9.90;99.90;;;;;;10442143;28;20041;-71
2021/12/13 02:39:44;;;;;;;12.05;6.22;;;9.90;99.90;;;;;;10445438;28;20014;-65
2021/12/13 02:44:48;;;;;;;10.45;5.88;;;9.90;99.90;;;;;;10429820;28;20032;-68
2021/12/13 02:49:50;;;;;;;11.80;6.47;;;9.90;99.90;;;;;;10444101;28;20021;-71
2021/12/13 02:55:19;;;;;;;12.00;6.68;;;9.80;99.90;;;;;;10445332;28;20044;-71
2021/12/13 03:00:28;;;;;;;;;;;9.90;99.90;;;;;;10442780;28;20044;-71
2021/12/13 03:05:35;;;;;;;;;;;9.80;99.90;;;;;;10433637;28;19927;-70
2021/12/13 03:10:39;;;;;;;11.40;5.63;;;9.80;99.90;;;;;;10446577;28;20366;-71
2021/12/13 03:15:49;;;;;;;12.43;5.90;;;9.80;99.90;;;;;;10445555;28;20495;-70
2021/12/13 03:20:50;;;;;;;11.27;6.25;;;9.80;99.90;;;;;;10445976;28;20036;-71
2021/12/13 03:26:37;;;;;;;10.27;5.43;;;9.80;99.90;;;;;;10446767;28;20029;-65
2021/12/13 03:31:49;;;;;;;11.05;5.30;;;9.80;99.90;;;;;;10447034;28;20061;-70
2021/12/13 03:36:59;;;;;;;9.32;4.80;;;9.80;99.90;;;;;;10426913;28;20495;-68
2021/12/13 03:42:04;;;;;;;8.98;4.88;;;9.80;99.90;;;;;;10444668;28;20025;-72
2021/12/13 03:47:16;;;;;;;10.80;5.13;;;9.80;99.90;;;;;;10441614;28;20048;-71
2021/12/13 03:52:20;;;;;;;7.80;4.88;;;9.80;99.90;;;;;;10445319;28;20655;-71
2021/12/13 03:57:21;;;;;;;9.88;4.68;;;9.80;99.90;;;;;;10444045;28;20029;-70
2021/12/13 04:02:30;;;;;;;9.43;5.15;;;9.80;99.90;;;;;;10425136;28;20509;-68
2021/12/13 04:07:35;;;;;;;9.02;4.53;;;9.80;99.90;;;;;;10430580;28;20491;-71
2021/12/13 04:12:44;;;;;;;9.85;4.63;;;9.80;99.90;;;;;;10444128;28;20075;-72
2021/12/13 04:17:59;;;;;;;8.98;4.28;;;9.80;99.90;;;;;;10447406;28;20053;-71
2021/12/13 04:23:21;;;;;;;8.73;4.28;;;9.80;99.90;;;;;;10453081;28;20481;-71
2021/12/13 04:28:31;;;;;;;8.68;4.45;;;9.80;99.90;;;;;;10457403;28;20271;-64
2021/12/13 04:33:35;;;;;;;7.72;4.10;;;9.80;99.90;;;;;;10455054;28;20505;-72
2021/12/13 04:39:07;;;;;;;8.02;4.38;;;9.80;99.90;;;;;;10456925;28;20009;-69
2021/12/13 04:44:31;;;;;;;7.32;3.90;;;9.80;99.90;;;;;;10430016;28;20060;-68
2021/12/13 04:49:34;;;;;;;8.63;4.40;;;9.80;99.90;;;;;;10452901;28;20021;-70
2021/12/13 04:54:39;;;;;;;7.45;4.10;;;9.80;99.90;;;;;;10456676;28;20041;-70
2021/12/13 04:59:40;;;;;;;9.32;4.43;;;9.80;99.90;;;;;;10445782;28;20087;-70
2021/12/13 05:04:41;;;;;;;6.35;3.90;;;9.80;99.90;;;;;;10442214;28;20049;-62
2021/12/13 05:09:45;;;;;;;5.55;3.10;;;9.90;99.90;;;;;;10447786;28;20033;-71
2021/12/13 05:14:53;;;;;;;7.35;3.60;;;9.80;99.90;;;;;;10456364;28;20048;-69
2021/12/13 05:20:14;;;;;;;6.68;3.30;;;9.80;99.90;;;;;;10448118;28;20052;-69
2021/12/13 05:25:35;;;;;;;6.60;3.35;;;9.90;99.90;;;;;;10452460;28;20491;-62
2021/12/13 05:30:49;;;;;;;7.40;3.47;;;9.80;99.90;;;;;;10452675;28;20051;-60
2021/12/13 05:35:56;;;;;;;6.18;3.30;;;9.80;99.90;;;;;;10447241;28;20044;-67
2021/12/13 05:40:59;;;;;;;8.52;3.97;;;9.80;99.90;;;;;;10449159;28;20395;-68
2021/12/13 05:46:03;;;;;;;6.50;3.90;;;9.80;99.90;;;;;;10442987;28;20053;-68
2021/12/13 05:51:19;;;;;;;9.15;4.00;;;9.80;99.90;;;;;;10445468;28;20033;-69
2021/12/13 05:56:20;;;;;;;8.07;3.70;;;9.80;99.90;;;;;;10445202;28;20041;-68
2021/12/13 06:01:31;;;;;;;7.32;3.80;;;9.80;99.90;;;;;;10446781;28;20036;-68
2021/12/13 06:06:34;;;;;;;10.60;4.05;;;9.80;99.90;;;;;;10438312;28;20051;-63
2021/12/13 06:11:39;;;;;;;7.03;3.60;;;9.80;99.90;;;;;;10430229;28;20013;-68
2021/12/13 06:16:48;;;;;;;9.02;4.10;;;9.90;99.90;;;;;;10447661;28;20481;-70
2021/12/13 06:22:09;;;;;;;;;;;9.80;99.90;;;;;;10448043;28;20035;-66
2021/12/13 06:27:25;;;;;;;9.23;3.88;;;9.80;99.90;;;;;;10446059;28;20114;-70
2021/12/13 06:32:32;;;;;;;6.88;3.55;;;9.80;99.90;;;;;;10446832;28;20056;-69
2021/12/13 06:37:35;;;;;;;6.70;3.45;;;9.80;99.90;;;;;;10446944;28;20419;-69
2021/12/13 06:42:36;;;;;;;10.48;4.63;;;9.80;99.90;;;;;;10444157;28;20521;-69
2021/12/13 06:47:48;;;;;;;7.70;3.30;;;9.80;99.90;;;;;;10440825;28;20028;-67
2021/12/13 06:52:49;;;;;;;6.45;3.38;;;9.80;99.90;;;;;;10443816;28;20024;-69
2021/12/13 06:57:54;;;;;;;8.23;4.07;;;9.80;99.90;;;;;;10443595;28;20392;-67
2021/12/13 07:03:00;;;;;;;8.38;3.80;;;9.80;99.90;;;;;;10436915;28;20506;-69
2021/12/13 07:08:27;;;;;;;9.38;4.15;;;9.80;99.90;;;;;;10433063;28;20070;-69
2021/12/13 07:13:36;;;;;;;7.78;4.18;;;9.80;99.90;;;;;;10432452;28;20063;-64
2021/12/13 07:18:57;;;;;;;8.45;4.15;;;9.80;99.90;;;;;;10444510;28;20045;-69
2021/12/13 07:24:12;;;;;;;7.22;4.03;;;9.80;99.90;;;;;;10430657;28;20116;-60
2021/12/13 07:29:20;;;;;;;8.25;4.72;;;9.80;99.90;;;;;;10444116;28;20047;-62
2021/12/13 07:34:21;;;;;;;9.40;4.95;;;9.80;99.90;;;;;;10425057;28;20810;-64
2021/12/13 07:39:27;;;;;;;9.10;4.78;;;9.80;99.90;;;;;;10422684;28;20032;-65
2021/12/13 07:44:31;;;;;;;9.35;5.10;;;9.80;99.90;;;;;;10412512;28;20431;-59
2021/12/13 07:49:35;;;;;;;9.13;4.80;;;9.90;99.90;;;;;;10432204;28;20090;-70
2021/12/13 07:54:43;;;;;;;11.15;5.50;;;9.80;99.90;;;;;;10444110;28;20032;-78
2021/12/13 07:59:45;;;;;;;10.10;5.93;;;9.80;99.90;;;;;;10435270;28;20017;-76
2021/12/13 08:05:01;;;;;;;10.45;5.57;;;9.90;99.90;;;;;;10427035;28;20513;-73
2021/12/13 08:10:13;;;;;;;8.45;5.10;;;9.80;99.90;;;;;;10439701;28;20036;-67
2021/12/13 08:15:22;;;;;;;9.80;5.55;;;9.80;99.90;;;;;;10439735;28;20498;-71
2021/12/13 08:20:30;;;;;;;10.55;5.72;;;9.80;99.90;;;;;;10442799;28;20148;-66
2021/12/13 08:25:38;;;;;;;12.02;6.40;;;9.80;99.90;;;;;;10419687;28;20163;-75
2021/12/13 08:30:53;;;;;;;11.13;5.90;;;9.80;99.90;;;;;;10442985;28;20029;-71
2021/12/13 08:36:09;;;;;;;10.68;5.35;;;9.70;99.90;;;;;;10440645;28;20489;-74
2021/12/13 08:41:35;;;;;;;9.77;5.78;;;9.80;99.90;;;;;;10439320;28;20066;-66
2021/12/13 08:46:41;;;;;;;13.60;6.65;;;9.80;99.90;;;;;;10432396;28;20029;-64
2021/12/13 08:52:10;;;;;;;12.07;6.43;;;9.80;99.90;;;;;;10417242;28;20026;-63
2021/12/13 08:57:31;;;;;;;11.05;6.25;;;9.80;99.90;;;;;;10415508;28;20403;-71
2021/12/13 09:02:38;;;;;;;10.55;6.00;;;9.80;99.90;;;;;;10432722;28;20371;-63
2021/12/13 09:07:53;;;;;;;12.95;6.90;;;9.80;99.90;;;;;;10431355;28;20025;-67
2021/12/13 09:12:57;;;;;;;9.63;5.53;;;9.80;99.90;;;;;;10445682;28;20029;-69
2021/12/13 09:17:58;;;;;;;10.88;5.85;;;9.80;99.90;;;;;;10440000;28;20044;-71
2021/12/13 09:23:13;;;;;;;11.77;6.25;;;9.80;99.90;;;;;;10441746;28;20032;-65
2021/12/13 09:28:20;;;;;;;12.38;6.60;;;9.90;99.90;;;;;;10432122;28;20029;-74
2021/12/13 09:33:28;;;;;;;11.75;6.72;;;9.90;99.90;;;;;;10442946;28;20036;-73
2021/12/13 09:38:41;;;;;;;13.27;7.10;;;9.90;99.90;;;;;;10439890;28;20029;-62
2021/12/13 09:43:50;;;;;;;15.43;7.07;;;9.90;99.90;;;;;;10439402;28;20028;-63
2021/12/13 09:48:54;;;;;;;14.38;6.50;;;9.90;99.90;;;;;;10438542;28;20510;-64
2021/12/13 09:53:57;;;;;;;14.23;6.93;;;9.90;99.90;;;;;;10446095;28;20033;-67
2021/12/13 09:59:11;;;;;;;17.48;7.35;;;9.90;99.90;;;;;;10437677;28;20021;-60
2021/12/13 10:04:27;;;;;;;13.50;6.65;;;9.90;99.90;;;;;;10440517;28;20076;-69
2021/12/13 10:09:39;;;;;;;15.25;6.90;;;9.90;99.90;;;;;;10441167;28;20501;-66
2021/12/13 10:14:46;;;;;;;15.30;7.88;;;9.90;99.90;;;;;;10446364;28;20045;-74
2021/12/13 10:19:52;;;;;;;14.00;6.72;;;9.90;99.90;;;;;;10446450;28;20037;-76
2021/12/13 10:24:58;;;;;;;12.65;7.03;;;10.60;99.90;;;;;;10446059;28;20440;-75
2021/12/13 10:30:04;;;;;;;13.60;7.38;;;9.90;99.90;;;;;;10436894;28;20098;-77
2021/12/13 10:35:18;;;;;;;14.98;6.90;;;9.90;99.90;;;;;;10434645;28;20094;-68
2021/12/13 10:40:29;;;;;;;16.05;7.30;;;9.90;99.90;;;;;;10436119;28;20021;-68
2021/12/13 10:45:39;;;;;;;15.50;7.53;;;9.90;99.90;;;;;;10443148;28;20024;-69
2021/12/13 10:50:43;;;;;;;11.40;6.30;;;10.00;99.90;;;;;;10433726;28;20028;-69
2021/12/13 10:55:58;;;;;;;16.73;7.80;;;10.00;99.90;;;;;;10444022;28;20122;-68
2021/12/13 11:01:17;;;;;;;13.95;6.95;;;10.00;99.90;;;;;;10436780;28;20017;-63
2021/12/13 11:06:20;;;;;;;15.55;7.03;;;10.00;99.90;;;;;;10442254;28;20091;-72
2021/12/13 11:11:30;;;;;;;16.23;7.88;;;10.00;99.90;;;;;;10444417;28;20025;-69
2021/12/13 11:16:38;;;;;;;13.68;6.65;;;10.10;99.90;;;;;;10440890;28;20132;-68
2021/12/13 11:21:41;;;;;;;14.20;6.78;;;10.00;99.90;;;;;;10430363;28;20049;-70
2021/12/13 11:26:44;;;;;;;13.38;6.80;;;10.00;99.90;;;;;;10420689;28;20371;-71
2021/12/13 11:31:55;;;;;;;15.32;7.72;;;10.00;99.90;;;;;;10443942;28;20557;-71
2021/12/13 11:37:11;;;;;;;17.92;7.38;;;10.00;99.90;;;;;;10441239;28;20049;-70
2021/12/13 11:42:34;;;;;;;14.48;6.80;;;10.00;99.90;;;;;;10415837;28;20554;-64
2021/12/13 11:47:49;;;;;;;12.20;6.03;;;10.10;99.90;;;;;;10438952;28;20017;-70
2021/12/13 11:53:27;;;;;;;11.63;5.88;;;10.10;99.90;;;;;;10441957;28;20029;-70
2021/12/13 11:59:02;;;;;;;13.23;6.10;;;10.10;99.90;;;;;;10439944;28;20024;-67
2021/12/13 12:04:38;;;;;;;15.77;6.18;;;10.10;99.90;;;;;;10438208;28;20333;-71
2021/12/13 12:10:16;;;;;;;11.63;6.03;;;10.10;99.90;;;;;;10439899;28;20167;-71
2021/12/13 12:15:19;;;;;;;11.13;5.47;;;10.10;99.90;;;;;;10440881;28;20033;-71
2021/12/13 12:20:34;;;;;;;9.90;5.53;;;10.10;99.90;;;;;;10430172;28;20072;-70
2021/12/13 12:25:37;;;;;;;12.48;6.18;;;10.10;99.90;;;;;;10437250;28;20028;-68
2021/12/13 12:30:43;;;;;;;10.70;5.85;;;10.10;99.90;;;;;;10438181;28;20043;-70
2021/12/13 12:35:50;;;;;;;13.70;6.50;;;10.20;99.90;;;;;;10439993;28;20083;-69
2021/12/13 12:41:06;;;;;;;10.32;5.60;;;10.20;99.90;;;;;;10444297;28;20021;-66
2021/12/13 12:46:13;;;;;;;12.82;6.13;;;10.20;99.90;;;;;;10448498;28;20148;-65
2021/12/13 12:51:21;;;;;;;13.40;6.35;;;10.20;99.90;;;;;;10445873;28;20021;-64
2021/12/13 12:56:28;;;;;;;13.20;6.27;;;10.20;99.90;;;;;;10447876;28;20155;-65
2021/12/13 13:01:43;;;;;;;8.88;5.20;;;10.20;99.90;;;;;;10448126;28;20048;-70
2021/12/13 13:07:06;;;;;;;12.75;5.85;;;10.20;99.90;;;;;;10438980;28;20306;-67
2021/12/13 13:12:11;;;;;;;11.75;5.95;;;10.20;99.90;;;;;;10449105;28;20052;-67
2021/12/13 13:17:12;;;;;;;9.55;5.22;;;10.20;99.90;;;;;;10435631;28;20120;-67
2021/12/13 13:22:22;;;;;;;12.23;5.85;;;10.20;99.90;;;;;;10445434;28;20044;-64
2021/12/13 13:27:27;;;;;;;10.23;5.57;;;10.20;99.90;;;;;;10435192;28;20051;-65
2021/12/13 13:32:27;;;;;;;11.82;5.85;;;10.20;99.90;;;;;;10447007;28;20506;-71
2021/12/13 13:37:32;;;;;;;9.82;5.28;;;10.20;99.90;;;;;;10443178;28;20041;-68
2021/12/13 13:42:45;;;;;;;9.10;5.07;;;10.30;99.90;;;;;;10444004;28;20029;-66
2021/12/13 13:47:51;;;;;;;10.73;5.78;;;10.20;99.90;;;;;;10442999;28;20041;-63
2021/12/13 13:52:55;;;;;;;11.23;5.63;;;10.40;99.90;;;;;;10437876;28;20019;-67
2021/12/13 13:58:03;;;;;;;11.15;5.60;;;10.30;99.90;;;;;;10438948;28;20024;-71
2021/12/13 14:03:04;;;;;;;11.43;5.50;;;10.20;99.90;;;;;;10444594;28;20112;-69
2021/12/13 14:08:21;;;;;;;12.73;5.63;;;10.20;99.90;;;;;;10443022;28;20494;-69
2021/12/13 14:13:23;;;;;;;9.13;4.25;;;10.20;99.90;;;;;;10445930;28;20163;-67
2021/12/13 14:18:28;;;;;;;12.52;5.25;;;10.20;99.90;;;;;;10445963;28;20036;-71
2021/12/13 14:23:32;;;;;;;9.18;4.53;;;10.20;99.90;;;;;;10441622;28;20100;-70
2021/12/13 14:29:02;;;;;;;9.85;4.97;;;10.20;99.90;;;;;;10445970;28;20029;-67
2021/12/13 14:34:05;;;;;;;9.82;5.07;;;10.20;99.90;;;;;;10442540;28;20045;-72
2021/12/13 14:39:26;;;;;;;9.27;4.85;;;10.20;99.90;;;;;;10444848;28;20138;-71
2021/12/13 14:44:32;;;;;;;9.38;4.82;;;10.20;99.90;;;;;;10446330;28;20407;-65
2021/12/13 14:49:40;;;;;;;9.45;4.93;;;10.20;99.90;;;;;;10434828;28;20021;-70
2021/12/13 14:54:41;;;;;;;11.38;5.15;;;10.20;99.90;;;;;;10440087;28;20071;-69
2021/12/13 14:59:48;;;;;;;11.18;5.55;;;10.20;99.90;;;;;;10436795;28;20021;-64
2021/12/13 15:04:50;;;;;;;10.85;5.00;;;10.20;99.90;;;;;;10436070;28;20026;-63
2021/12/13 15:10:16;;;;;;;9.23;4.78;;;10.20;99.90;;;;;;10446165;28;20078;-67
2021/12/13 15:15:23;;;;;;;10.88;5.03;;;10.20;99.90;;;;;;10444385;28;20056;-68
2021/12/13 15:20:28;;;;;;;9.65;5.05;;;10.20;99.90;;;;;;10445146;28;20048;-65
2021/12/13 15:25:41;;;;;;;11.00;4.72;;;10.10;99.90;;;;;;10439912;28;20420;-62
2021/12/13 15:30:42;;;;;;;10.18;4.97;;;10.10;99.90;;;;;;10441684;28;20459;-65
2021/12/13 15:35:46;;;;;;;8.85;4.25;;;10.10;99.90;;;;;;10440631;28;20037;-65
2021/12/13 15:40:51;;;;;;;10.25;4.50;;;10.10;99.90;;;;;;10438032;28;20112;-63
2021/12/13 15:46:00;;;;;;;8.35;4.35;;;10.10;99.90;;;;;;10431302;28;20028;-61
2021/12/13 15:51:08;;;;;;;11.60;5.20;;;10.10;99.90;;;;;;10445339;28;20409;-63
2021/12/13 15:56:15;;;;;;;12.60;4.80;;;10.10;99.90;;;;;;10445633;28;20102;-61
2021/12/13 16:01:29;;;;;;;7.75;4.72;;;10.10;99.90;;;;;;10438346;28;20029;-64
2021/12/13 16:06:34;;;;;;;9.85;5.03;;;10.10;99.90;;;;;;10438334;28;20072;-67
2021/12/13 16:11:43;;;;;;;9.10;4.38;;;10.10;99.90;;;;;;10443130;28;20502;-63
2021/12/13 16:16:53;;;;;;;9.60;4.60;;;10.10;99.90;;;;;;10440884;28;20143;-63
2021/12/13 16:21:54;;;;;;;8.05;4.32;;;10.10;99.90;;;;;;10433115;28;20013;-62
2021/12/13 16:26:55;;;;;;;8.45;4.43;;;10.10;99.90;;;;;;10441680;28;20029;-62
2021/12/13 16:31:56;;;;;;;9.82;4.70;;;10.10;99.90;;;;;;10441604;28;20116;-62
2021/12/13 16:37:01;;;;;;;9.32;4.43;;;10.10;99.90;;;;;;10421556;28;20047;-65
2021/12/13 16:42:05;;;;;;;9.18;4.53;;;10.10;99.90;;;;;;10439552;28;20529;-63
2021/12/13 16:47:10;;;;;;;7.68;4.25;;;10.10;99.90;;;;;;10420091;28;20378;-63
2021/12/13 16:52:18;;;;;;;8.23;4.75;;;10.20;99.90;;;;;;10417547;28;20021;-67
2021/12/13 16:57:29;;;;;;;6.87;3.90;;;10.10;99.90;;;;;;10413384;28;20045;-68
2021/12/13 17:02:30;;;;;;;9.68;4.35;;;10.10;99.90;;;;;;10421961;28;20395;-65
2021/12/13 17:07:36;;;;;;;10.02;4.43;;;10.10;99.90;;;;;;10436781;28;20048;-65
2021/12/13 17:12:54;;;;;;;8.63;4.32;;;10.10;99.90;;;;;;10424322;28;20028;-66
2021/12/13 17:17:55;;;;;;;9.07;4.18;;;10.10;99.90;;;;;;10441435;28;20061;-76
2021/12/13 17:23:16;;;;;;;9.52;4.72;;;10.10;99.90;;;;;;10437914;28;20036;-73
2021/12/13 17:28:17;;;;;;;7.22;4.00;;;10.10;99.90;;;;;;10446589;28;20118;-71
2021/12/13 17:33:36;;;;;;;8.95;4.15;;;10.10;99.90;;;;;;10446239;28;20029;-74
2021/12/13 17:38:37;;;;;;;6.88;4.07;;;10.10;99.90;;;;;;10447426;28;20033;-71
2021/12/13 17:43:41;;;;;;;8.07;3.80;;;10.10;99.90;;;;;;10425067;28;20417;-67
2021/12/13 17:48:47;;;;;;;9.07;4.20;;;10.10;99.90;;;;;;10447281;28;20024;-72
2021/12/13 17:54:00;;;;;;;9.48;4.93;;;10.10;99.90;;;;;;10433931;28;20043;-66
2021/12/13 17:59:15;;;;;;;10.73;4.95;;;10.00;99.90;;;;;;10440986;28;20033;-73
2021/12/13 18:04:32;;;;;;;10.07;4.57;;;10.10;99.90;;;;;;10437484;28;20155;-66
2021/12/13 18:09:45;;;;;;;8.23;4.55;;;10.10;99.90;;;;;;10447915;28;20078;-72
2021/12/13 18:15:02;;;;;;;8.90;4.78;;;10.10;99.90;;;;;;10447632;28;20068;-75
2021/12/13 18:20:17;;;;;;;9.57;4.40;;;10.10;99.90;;;;;;10442181;28;20045;-72
2021/12/13 18:25:21;;;;;;;10.52;4.68;;;10.10;99.90;;;;;;10438437;28;20083;-71
2021/12/13 18:30:51;;;;;;;8.60;4.28;;;10.10;99.90;;;;;;10443874;28;20063;-68
2021/12/13 18:36:02;;;;;;;9.30;4.25;;;10.10;99.90;;;;;;10432640;28;20033;-70
2021/12/13 18:41:13;;;;;;;9.10;4.75;;;10.10;99.90;;;;;;10443652;28;20032;-68
2021/12/13 18:46:27;;;;;;;8.55;4.80;;;10.10;99.90;;;;;;10442902;28;20036;-69
2021/12/13 18:51:43;;;;;;;7.10;4.63;;;10.20;99.90;;;;;;10451407;28;20023;-69
2021/12/13 18:56:44;;;;;;;8.80;4.68;;;10.20;99.90;;;;;;10425238;28;21104;-70
2021/12/13 19:01:45;;;;;;;8.27;4.25;;;10.10;99.90;;;;;;10423330;28;20409;-69
2021/12/13 19:06:51;;;;;;;7.55;4.38;;;10.10;99.90;;;;;;10432616;28;20382;-69
2021/12/13 19:12:00;;;;;;;7.55;3.97;;;10.10;99.90;;;;;;10440299;28;20143;-69
2021/12/13 19:17:08;;;;;;;7.90;4.35;;;10.10;99.90;;;;;;10433029;28;20485;-69
2021/12/13 19:22:20;;;;;;;7.30;4.60;;;10.10;99.90;;;;;;10410429;28;20033;-70
2021/12/13 19:27:43;;;;;;;8.48;4.43;;;10.10;99.90;;;;;;10420935;28;20460;-69
2021/12/13 19:32:58;;;;;;;6.82;4.25;;;10.10;99.90;;;;;;10412059;28;20026;-68
2021/12/13 19:38:23;;;;;;;7.80;4.32;;;9.70;99.90;;;;;;10412414;28;20037;-70
2021/12/13 19:43:37;;;;;;;9.27;4.18;;;10.10;99.90;;;;;;10408327;28;20124;-67
2021/12/13 19:48:44;;;;;;;8.23;4.40;;;10.10;99.90;;;;;;10412102;28;20582;-69
2021/12/13 19:54:05;;;;;;;8.18;4.40;;;10.10;99.90;;;;;;10415804;28;20439;-68
2021/12/13 19:59:12;;;;;;;8.32;4.97;;;10.10;99.90;;;;;;10419791;28;20511;-67
2021/12/13 20:04:33;;;;;;;7.53;4.40;;;10.00;99.90;;;;;;10414101;28;20025;-67
2021/12/13 20:10:03;;;;;;;7.95;4.20;;;10.00;99.90;;;;;;10413975;28;20025;-69
2021/12/13 20:15:13;;;;;;;8.45;4.78;;;10.00;99.90;;;;;;10405939;28;20403;-71
2021/12/13 20:20:20;;;;;;;8.75;4.95;;;10.00;99.90;;;;;;10411396;28;20046;-70
2021/12/13 20:25:39;;;;;;;6.97;4.68;;;10.00;99.90;;;;;;10407912;28;20053;-69
2021/12/13 20:31:01;;;;;;;7.30;4.45;;;10.00;99.90;;;;;;10406583;28;20033;-72
2021/12/13 20:36:14;;;;;;;9.23;4.70;;;10.00;99.90;;;;;;10410284;28;20045;-72
2021/12/13 20:41:25;;;;;;;6.95;4.63;;;10.00;99.90;;;;;;10422806;28;20017;-71
2021/12/13 20:46:40;;;;;;;7.13;4.65;;;10.00;99.90;;;;;;10410841;28;20024;-71
2021/12/13 20:51:46;;;;;;;8.35;4.72;;;10.00;99.90;;;;;;10425559;28;20054;-71
2021/12/13 20:56:52;;;;;;;6.93;4.50;;;10.00;99.90;;;;;;10428224;28;20068;-71
2021/12/13 21:02:01;;;;;;;6.72;4.25;;;10.10;99.90;;;;;;10435458;28;20087;-71
2021/12/13 21:07:11;;;;;;;8.48;4.85;;;10.00;99.90;;;;;;10448411;28;20510;-71
2021/12/13 21:12:24;;;;;;;7.57;4.45;;;10.00;99.90;;;;;;10446977;28;20009;-65
2021/12/13 21:17:32;;;;;;;7.55;4.30;;;10.00;99.90;;;;;;10445049;28;20076;-63
2021/12/13 21:22:46;;;;;;;6.95;4.20;;;10.00;99.90;;;;;;10448832;28;20025;-63
2021/12/13 21:28:03;;;;;;;7.28;4.55;;;10.00;99.90;;;;;;10438668;28;20033;-66
2021/12/13 21:33:05;;;;;;;7.28;4.32;;;10.00;99.90;;;;;;10440547;28;20111;-68
2021/12/13 21:43:46;;;;;;;6.88;4.50;;;10.00;99.90;;;;;;10429485;28;20458;-67
2021/12/13 21:48:49;;;;;;;9.20;4.40;;;10.00;99.90;;;;;;10439587;28;20063;-68
2021/12/13 21:54:05;;;;;;;7.00;4.30;;;10.00;99.90;;;;;;10438557;28;20072;-68
2021/12/13 21:59:26;;;;;;;8.00;4.57;;;10.00;99.90;;;;;;10438986;28;20058;-67
2021/12/13 22:04:39;;;;;;;8.15;4.68;;;10.00;99.90;;;;;;10444108;28;20082;-68
2021/12/13 22:09:46;;;;;;;7.10;4.47;;;10.00;99.90;;;;;;10438794;28;20123;-67
2021/12/13 22:15:05;;;;;;;7.68;4.70;;;10.00;99.90;;;;;;10436166;28;20025;-69
2021/12/13 22:20:14;;;;;;;;;;;10.00;99.90;;;;;;10416707;28;20396;-68
2021/12/13 22:25:20;;;;;;;;;;;9.90;99.90;;;;;;10421398;28;19920;-66
2021/12/13 22:30:29;;;;;;;8.27;4.53;;;9.90;99.90;;;;;;10427347;28;19908;-68
2021/12/13 22:35:39;;;;;;;9.27;4.82;;;9.90;99.90;;;;;;10417240;28;20065;-67
2021/12/13 22:41:05;;;;;;;10.80;4.97;;;10.00;99.90;;;;;;10415936;28;20730;-67
2021/12/13 22:46:10;;;;;;;8.77;4.78;;;10.00;99.90;;;;;;10407638;28;20132;-67
2021/12/13 22:51:15;;;;;;;8.10;4.57;;;9.90;99.90;;;;;;10426754;28;20025;-66
2021/12/13 22:56:17;;;;;;;9.30;4.50;;;9.90;99.90;;;;;;10448645;28;20041;-66
2021/12/13 23:01:29;;;;;;;9.32;5.07;;;9.90;99.90;;;;;;10444837;28;20020;-66
2021/12/13 23:06:30;;;;;;;6.65;4.78;;;9.90;99.90;;;;;;10422570;28;20017;-66
2021/12/13 23:11:48;;;;;;;6.38;4.35;;;9.90;99.90;;;;;;10447075;28;20021;-67
2021/12/13 23:16:50;;;;;;;7.53;4.32;;;9.90;99.90;;;;;;10431698;28;20076;-66
2021/12/13 23:21:55;;;;;;;9.80;5.18;;;9.90;99.90;;;;;;10428950;28;20009;-66
2021/12/13 23:27:06;;;;;;;8.73;4.95;;;9.90;99.90;;;;;;10446375;28;20020;-66
2021/12/13 23:32:11;;;;;;;8.95;4.95;;;9.90;99.90;;;;;;10448207;28;20032;-66
2021/12/13 23:37:12;;;;;;;8.38;4.88;;;9.90;99.90;;;;;;10447124;28;20033;-66
2021/12/13 23:47:43;;;;;;;7.47;4.80;;;9.90;99.90;;;;;;10433928;28;20033;-67
2021/12/13 23:52:52;;;;;;;6.57;4.30;;;9.90;99.90;;;;;;10446265;28;20029;-66
2021/12/13 23:57:56;;;;;;;7.03;4.78;;;9.90;99.90;;;;;;10446133;28;20040;-66
